Time;durP1;ratioP1;P1;durP2;ratioP2;P2;SDS_P1;SDS_P2;PMS_P1;PMS_P2;Temp;Humidity;BMP_temperature;BMP_pressure;BME280_temperature;BME280_humidity;BME280_pressure;Samples;Min_cycle;Max_cycle;Signal;HPM_P1;HPM_P2
2023/01/24 00:01:43;;;;;;;8.00;2.57;;;;;;;;;;5026898;28;20100;-66
2023/01/24 00:04:09;;;;;;;2.30;1.53;;;;;;;;;;5027165;28;20076;-65
2023/01/24 00:06:36;;;;;;;4.50;2.47;;;;;;;;;;5026946;28;20040;-65
2023/01/24 00:09:03;;;;;;;4.60;2.80;;;;;;;;;;5026818;28;20380;-67
2023/01/24 00:11:29;;;;;;;3.23;1.80;;;;;;;;;;5032357;28;20019;-66
2023/01/24 00:13:56;;;;;;;6.93;1.90;;;;;;;;;;5031918;28;20030;-65
2023/01/24 00:16:23;;;;;;;3.20;1.87;;;;;;;;;;5031866;28;20033;-64
2023/01/24 00:18:50;;;;;;;4.87;2.47;;;;;;;;;;5032211;28;20033;-66
2023/01/24 00:21:20;;;;;;;4.50;2.53;;;;;;;;;;5032438;28;20086;-66
2023/01/24 00:23:48;;;;;;;6.30;2.20;;;;;;;;;;5026726;28;20025;-66
2023/01/24 00:26:15;;;;;;;3.00;1.77;;;;;;;;;;5026910;28;20125;-66
2023/01/24 00:28:41;;;;;;;3.33;1.90;;;;;;;;;;5026464;28;20038;-66
2023/01/24 00:31:08;;;;;;;3.63;2.27;;;;;;;;;;5026204;28;20029;-67
2023/01/24 00:33:35;;;;;;;4.87;2.70;;;;;;;;;;5031454;28;20079;-66
2023/01/24 00:36:02;;;;;;;2.93;2.10;;;;;;;;;;5031452;28;20029;-66
2023/01/24 00:38:30;;;;;;;2.20;1.70;;;;;;;;;;5031976;28;20036;-66
2023/01/24 00:40:57;;;;;;;2.47;1.90;;;;;;;;;;5032233;28;20488;-66
2023/01/24 00:43:25;;;;;;;3.73;2.37;;;;;;;;;;5031893;28;20025;-66
2023/01/24 00:45:52;;;;;;;4.53;2.13;;;;;;;;;;5027293;28;20052;-66
2023/01/24 00:48:19;;;;;;;4.97;2.33;;;;;;;;;;5026380;28;20030;-65
2023/01/24 00:50:45;;;;;;;4.87;2.27;;;;;;;;;;5026858;28;20045;-66
2023/01/24 00:53:12;;;;;;;3.37;2.30;;;;;;;;;;5026357;28;20029;-66
2023/01/24 00:55:46;;;;;;;3.07;2.30;;;;;;;;;;5030359;28;20022;-66
2023/01/24 00:58:13;;;;;;;5.40;2.55;;;;;;;;;;5027744;28;20029;-67
2023/01/24 01:00:40;;;;;;;4.33;1.77;;;;;;;;;;5032027;28;20345;-66
2023/01/24 01:03:08;;;;;;;3.17;1.90;;;;;;;;;;5031096;28;20030;-65
2023/01/24 01:05:34;;;;;;;2.97;2.10;;;;;;;;;;5034354;28;20067;-66
2023/01/24 01:08:01;;;;;;;2.57;1.57;;;;;;;;;;5030336;28;20563;-66
2023/01/24 01:10:29;;;;;;;3.33;1.37;;;;;;;;;;5030065;28;20032;-66
2023/01/24 01:12:55;;;;;;;3.13;1.50;;;;;;;;;;5029148;28;20040;-66
2023/01/24 01:15:22;;;;;;;4.47;2.70;;;;;;;;;;5030266;28;20025;-65
2023/01/24 01:17:49;;;;;;;5.07;2.00;;;;;;;;;;5032919;28;20480;-66
2023/01/24 01:20:15;;;;;;;6.43;2.30;;;;;;;;;;5034993;28;20105;-66
2023/01/24 01:22:42;;;;;;;2.83;1.97;;;;;;;;;;5034914;28;20044;-66
2023/01/24 01:25:09;;;;;;;4.03;2.17;;;;;;;;;;5035476;28;20472;-67
2023/01/24 01:27:36;;;;;;;3.47;2.27;;;;;;;;;;5033829;28;20500;-66
2023/01/24 01:30:03;;;;;;;2.60;1.77;;;;;;;;;;5031414;28;20021;-68
2023/01/24 01:32:30;;;;;;;8.90;2.27;;;;;;;;;;5029172;28;20021;-67
2023/01/24 01:34:56;;;;;;;2.90;1.97;;;;;;;;;;5029634;28;20040;-67
2023/01/24 01:37:24;;;;;;;2.13;1.47;;;;;;;;;;5028596;28;20433;-67
2023/01/24 01:39:50;;;;;;;3.50;1.33;;;;;;;;;;5032574;28;20479;-66
2023/01/24 01:42:17;;;;;;;6.17;2.90;;;;;;;;;;5035257;28;20056;-67
2023/01/24 01:44:47;;;;;;;5.83;2.67;;;;;;;;;;5034349;28;20025;-67
2023/01/24 01:47:34;;;;;;;2.97;1.77;;;;;;;;;;5034993;28;20084;-66
2023/01/24 01:50:08;;;;;;;4.47;2.07;;;;;;;;;;5034596;28;20025;-66
2023/01/24 01:52:38;;;;;;;2.60;1.40;;;;;;;;;;5030891;28;20034;-66
2023/01/24 01:55:11;;;;;;;1.57;1.27;;;;;;;;;;5029607;28;20025;-67
2023/01/24 01:57:40;;;;;;;4.63;2.10;;;;;;;;;;5029737;28;20028;-67
2023/01/24 02:00:14;;;;;;;10.07;2.03;;;;;;;;;;5029243;28;20029;-67
2023/01/24 02:02:42;;;;;;;4.07;1.35;;;;;;;;;;5033482;28;20108;-67
2023/01/24 02:05:11;;;;;;;3.63;1.17;;;;;;;;;;5034431;28;20454;-66
2023/01/24 02:07:42;;;;;;;2.87;1.40;;;;;;;;;;5034413;28;20384;-67
2023/01/24 02:10:09;;;;;;;2.30;1.40;;;;;;;;;;5034748;28;20071;-67
2023/01/24 02:12:40;;;;;;;17.30;2.17;;;;;;;;;;5034373;28;20017;-67
2023/01/24 02:17:54;;;;;;;1.10;0.87;;;;;;;;;;5029643;28;20044;-66
2023/01/24 02:20:21;;;;;;;2.63;2.07;;;;;;;;;;5029350;28;20029;-67
2023/01/24 02:22:56;;;;;;;4.27;2.20;;;;;;;;;;5029329;28;20104;-67
2023/01/24 02:25:27;;;;;;;3.10;2.10;;;;;;;;;;5033763;28;20029;-66
2023/01/24 02:27:54;;;;;;;9.00;1.93;;;;;;;;;;5034045;28;20033;-66
2023/01/24 02:30:21;;;;;;;3.07;1.53;;;;;;;;;;5034350;28;20026;-66
2023/01/24 02:32:48;;;;;;;3.53;1.50;;;;;;;;;;5034195;28;20029;-66
2023/01/24 02:35:27;;;;;;;2.63;1.87;;;;;;;;;;5034171;28;20102;-67
2023/01/24 02:37:54;;;;;;;3.03;1.43;;;;;;;;;;5028370;28;20478;-66
2023/01/24 02:40:21;;;;;;;2.07;1.53;;;;;;;;;;5028781;28;20392;-67
2023/01/24 02:42:48;;;;;;;5.73;1.13;;;;;;;;;;5028561;28;20498;-66
2023/01/24 02:45:21;;;;;;;4.27;2.27;;;;;;;;;;5028865;28;20032;-66
2023/01/24 02:47:49;;;;;;;3.83;2.67;;;;;;;;;;5032434;28;20499;-67
2023/01/24 02:50:16;;;;;;;3.70;2.10;;;;;;;;;;5033998;28;20029;-67
2023/01/24 02:55:28;;;;;;;3.60;2.13;;;;;;;;;;5034016;28;20044;-67
2023/01/24 02:58:08;;;;;;;3.50;1.30;;;;;;;;;;5033214;28;20025;-67
2023/01/24 03:00:39;;;;;;;6.13;2.43;;;;;;;;;;5027737;28;20112;-66
2023/01/24 03:03:07;;;;;;;5.50;2.40;;;;;;;;;;5027909;28;20030;-68
2023/01/24 03:05:56;;;;;;;4.83;1.50;;;;;;;;;;5028136;28;20029;-66
2023/01/24 03:08:26;;;;;;;5.50;2.37;;;;;;;;;;5028888;28;20040;-67
2023/01/24 03:10:52;;;;;;;2.77;1.70;;;;;;;;;;5033380;28;20064;-66
2023/01/24 03:35:21;;;;;;;2.40;1.73;;;;;;;;;;5031965;28;20029;-66
2023/01/24 03:40:33;;;;;;;2.92;2.13;;;;;;;;;;5032468;28;20064;-67
2023/01/24 03:43:00;;;;;;;3.67;2.23;;;;;;;;;;5030622;28;20075;-66
2023/01/24 03:45:28;;;;;;;5.40;2.73;;;;;;;;;;5025305;28;20488;-66
2023/01/24 03:47:56;;;;;;;3.93;2.33;;;;;;;;;;5025891;28;20045;-67
2023/01/24 03:53:09;;;;;;;7.13;2.17;;;;;;;;;;5023280;28;20056;-63
2023/01/24 03:55:36;;;;;;;1.87;1.43;;;;;;;;;;5031742;28;20052;-63
2023/01/24 03:58:03;;;;;;;5.07;2.47;;;;;;;;;;5032282;28;20022;-64
2023/01/24 04:00:30;;;;;;;4.83;2.70;;;;;;;;;;5031714;28;20492;-63
2023/01/24 04:02:56;;;;;;;2.27;1.70;;;;;;;;;;5032511;28;20037;-63
2023/01/24 04:05:23;;;;;;;3.83;2.07;;;;;;;;;;5030983;28;20151;-63
2023/01/24 04:07:50;;;;;;;3.37;1.63;;;;;;;;;;5027062;28;20029;-64
2023/01/24 04:10:17;;;;;;;1.73;1.33;;;;;;;;;;5027247;28;20053;-64
2023/01/24 04:12:44;;;;;;;4.77;2.60;;;;;;;;;;5011555;28;20476;-64
2023/01/24 04:15:15;;;;;;;7.97;2.33;;;;;;;;;;5028058;28;20075;-64
2023/01/24 04:17:42;;;;;;;2.43;1.70;;;;;;;;;;5032499;28;20025;-64
2023/01/24 04:20:09;;;;;;;3.47;2.10;;;;;;;;;;5032322;28;20021;-64
2023/01/24 04:22:36;;;;;;;3.93;2.47;;;;;;;;;;5032092;28;20033;-64
2023/01/24 04:25:02;;;;;;;4.47;2.27;;;;;;;;;;5032148;28;20030;-64
2023/01/24 04:27:29;;;;;;;4.37;2.77;;;;;;;;;;5030839;28;20113;-66
2023/01/24 04:29:56;;;;;;;6.33;1.70;;;;;;;;;;5027020;28;20356;-64
2023/01/24 04:32:22;;;;;;;5.47;2.23;;;;;;;;;;5026824;28;20025;-64
2023/01/24 04:34:49;;;;;;;2.37;1.80;;;;;;;;;;5027100;28;20448;-64
2023/01/24 04:37:16;;;;;;;33.43;1.57;;;;;;;;;;5027326;28;20033;-64
2023/01/24 04:39:42;;;;;;;5.57;1.73;;;;;;;;;;5034963;28;20033;-64
2023/01/24 04:42:09;;;;;;;2.83;2.03;;;;;;;;;;5036500;28;20025;-64
2023/01/24 04:44:36;;;;;;;2.83;1.50;;;;;;;;;;5035891;28;20029;-64
2023/01/24 04:47:02;;;;;;;1.97;1.37;;;;;;;;;;5035558;28;20030;-64
2023/01/24 04:49:29;;;;;;;3.37;1.70;;;;;;;;;;5035506;28;20025;-66
2023/01/24 04:51:56;;;;;;;6.10;2.53;;;;;;;;;;5030884;28;20025;-64
2023/01/24 04:54:22;;;;;;;9.67;2.73;;;;;;;;;;5030835;28;20111;-64
2023/01/24 04:56:49;;;;;;;3.53;1.93;;;;;;;;;;5030479;28;20119;-64
2023/01/24 04:59:16;;;;;;;1.57;1.30;;;;;;;;;;5030827;28;20029;-64
2023/01/24 05:01:42;;;;;;;4.30;1.43;;;;;;;;;;5035423;28;20037;-64
2023/01/24 05:04:10;;;;;;;3.10;2.30;;;;;;;;;;5035856;28;20083;-65
2023/01/24 05:06:36;;;;;;;2.77;1.10;;;;;;;;;;5035532;28;20458;-68
2023/01/24 05:09:03;;;;;;;6.87;2.37;;;;;;;;;;5035624;28;20017;-65
2023/01/24 05:11:30;;;;;;;2.97;2.10;;;;;;;;;;5035750;28;20026;-64
2023/01/24 05:13:57;;;;;;;3.30;2.07;;;;;;;;;;5026976;28;20029;-65
2023/01/24 05:16:24;;;;;;;2.63;2.00;;;;;;;;;;5010692;28;20449;-65
2023/01/24 05:18:50;;;;;;;9.77;2.93;;;;;;;;;;5010492;28;20025;-65
2023/01/24 05:21:18;;;;;;;2.50;1.77;;;;;;;;;;5029892;28;20034;-65
2023/01/24 05:23:50;;;;;;;6.97;2.80;;;;;;;;;;5034299;28;20104;-65
2023/01/24 05:26:17;;;;;;;4.97;2.67;;;;;;;;;;5035301;28;20029;-65
2023/01/24 05:28:43;;;;;;;20.10;2.33;;;;;;;;;;5035610;28;20108;-65
2023/01/24 05:31:10;;;;;;;2.50;1.33;;;;;;;;;;5035046;28;20472;-65
2023/01/24 05:33:37;;;;;;;1.47;1.13;;;;;;;;;;5035544;28;20361;-65
2023/01/24 05:36:05;;;;;;;3.20;2.33;;;;;;;;;;5030360;28;20491;-65
2023/01/24 05:38:32;;;;;;;10.07;2.67;;;;;;;;;;5029708;28;20124;-65
2023/01/24 05:41:02;;;;;;;2.27;1.70;;;;;;;;;;5029500;28;20373;-65
2023/01/24 05:43:28;;;;;;;3.83;2.87;;;;;;;;;;5029716;28;20021;-65
2023/01/24 05:46:06;;;;;;;3.57;2.27;;;;;;;;;;5033802;28;20488;-66
2023/01/24 05:48:33;;;;;;;4.77;2.77;;;;;;;;;;5034838;28;20029;-66
2023/01/24 05:51:03;;;;;;;4.13;2.70;;;;;;;;;;5033950;28;20029;-66
2023/01/24 05:53:31;;;;;;;5.43;2.97;;;;;;;;;;5034899;28;20469;-66
2023/01/24 05:55:59;;;;;;;3.57;2.70;;;;;;;;;;5034908;28;20451;-66
2023/01/24 05:58:26;;;;;;;7.73;2.50;;;;;;;;;;5029680;28;20522;-66
2023/01/24 06:00:53;;;;;;;2.83;2.20;;;;;;;;;;5029608;28;20029;-66
2023/01/24 06:03:20;;;;;;;3.57;2.13;;;;;;;;;;5029602;28;20036;-66
2023/01/24 06:05:50;;;;;;;1.43;1.20;;;;;;;;;;5029051;28;20045;-65
2023/01/24 06:08:17;;;;;;;2.67;1.80;;;;;;;;;;5033354;28;20373;-66
2023/01/24 06:10:44;;;;;;;3.73;2.23;;;;;;;;;;5034382;28;20040;-65
2023/01/24 06:13:11;;;;;;;2.90;2.03;;;;;;;;;;5034743;28;20079;-66
2023/01/24 06:15:38;;;;;;;2.87;2.07;;;;;;;;;;5034501;28;20514;-66
2023/01/24 06:18:05;;;;;;;2.57;1.70;;;;;;;;;;5034501;28;20475;-68
2023/01/24 06:20:32;;;;;;;4.30;2.90;;;;;;;;;;5030223;28;20029;-66
2023/01/24 06:23:08;;;;;;;1.67;1.37;;;;;;;;;;5028630;28;20036;-66
2023/01/24 06:25:35;;;;;;;2.63;2.20;;;;;;;;;;5029083;28;20029;-66
2023/01/24 06:28:02;;;;;;;2.80;2.40;;;;;;;;;;5028652;28;20124;-66
2023/01/24 06:30:28;;;;;;;4.37;1.97;;;;;;;;;;5032499;28;20024;-65
2023/01/24 06:33:07;;;;;;;4.40;2.73;;;;;;;;;;5034353;28;20026;-65
2023/01/24 06:35:57;;;;;;;3.40;2.57;;;;;;;;;;5033577;28;20034;-65
2023/01/24 06:38:24;;;;;;;3.63;2.43;;;;;;;;;;5028873;28;20037;-66
2023/01/24 06:40:58;;;;;;;2.23;1.30;;;;;;;;;;5034153;28;20446;-65
2023/01/24 06:43:25;;;;;;;4.33;2.00;;;;;;;;;;5028685;28;20379;-65
2023/01/24 06:45:52;;;;;;;3.17;2.30;;;;;;;;;;5028080;28;20041;-67
2023/01/24 06:48:18;;;;;;;11.03;2.93;;;;;;;;;;5028578;28;20021;-66
2023/01/24 06:50:45;;;;;;;2.83;1.90;;;;;;;;;;5028534;28;20029;-65
2023/01/24 06:53:14;;;;;;;1.37;1.27;;;;;;;;;;5033216;28;20376;-65
2023/01/24 06:55:44;;;;;;;3.30;2.63;;;;;;;;;;5033909;28;20112;-65
2023/01/24 06:58:11;;;;;;;3.97;2.70;;;;;;;;;;5033574;28;20057;-66
2023/01/24 07:00:38;;;;;;;3.00;2.13;;;;;;;;;;5033974;28;20026;-65
2023/01/24 07:03:08;;;;;;;5.00;2.83;;;;;;;;;;5031974;28;20022;-65
2023/01/24 07:05:35;;;;;;;2.67;1.90;;;;;;;;;;5028642;28;20506;-65
2023/01/24 07:08:02;;;;;;;12.87;3.53;;;;;;;;;;5028180;28;20048;-65
2023/01/24 07:10:29;;;;;;;4.67;2.97;;;;;;;;;;5027913;28;20033;-66
2023/01/24 07:12:56;;;;;;;3.80;2.93;;;;;;;;;;5028189;28;20376;-65
2023/01/24 07:15:23;;;;;;;3.37;2.60;;;;;;;;;;5032391;28;20056;-64
2023/01/24 07:17:50;;;;;;;5.73;3.43;;;;;;;;;;5033368;28;20022;-65
2023/01/24 07:20:17;;;;;;;8.00;2.60;;;;;;;;;;5033164;28;20030;-65
2023/01/24 07:22:44;;;;;;;6.10;3.20;;;;;;;;;;5033009;28;20500;-67
2023/01/24 07:25:14;;;;;;;4.10;1.50;;;;;;;;;;5033179;28;20112;-65
2023/01/24 07:27:42;;;;;;;5.07;3.77;;;;;;;;;;5028284;28;20083;-65
2023/01/24 07:30:10;;;;;;;7.70;2.17;;;;;;;;;;5027879;28;20029;-65
2023/01/24 07:32:36;;;;;;;4.57;1.70;;;;;;;;;;5027723;28;20100;-65
2023/01/24 07:35:03;;;;;;;3.57;2.17;;;;;;;;;;5026811;28;20040;-64
2023/01/24 07:37:30;;;;;;;3.77;2.87;;;;;;;;;;5031327;28;20032;-65
2023/01/24 07:39:57;;;;;;;4.17;2.70;;;;;;;;;;5032941;28;20063;-65
2023/01/24 07:42:23;;;;;;;3.23;2.57;;;;;;;;;;5033201;28;20028;-64
2023/01/24 07:44:50;;;;;;;5.10;2.80;;;;;;;;;;5032895;28;20095;-64
2023/01/24 07:47:17;;;;;;;3.80;2.70;;;;;;;;;;5032593;28;20045;-65
2023/01/24 07:49:44;;;;;;;2.13;1.73;;;;;;;;;;5028618;28;20036;-65
2023/01/24 07:52:10;;;;;;;5.67;3.20;;;;;;;;;;5026987;28;20484;-65
2023/01/24 07:54:37;;;;;;;3.37;2.40;;;;;;;;;;5027219;28;20029;-65
2023/01/24 07:57:04;;;;;;;3.87;2.77;;;;;;;;;;5027287;28;20400;-64
2023/01/24 07:59:30;;;;;;;4.00;2.20;;;;;;;;;;5030335;28;20033;-64
2023/01/24 08:01:57;;;;;;;2.80;1.87;;;;;;;;;;5032438;28;20104;-65
2023/01/24 08:04:24;;;;;;;6.50;1.60;;;;;;;;;;5032510;28;20014;-66
2023/01/24 08:09:36;;;;;;;2.08;1.63;;;;;;;;;;5032510;28;20087;-64
2023/01/24 08:12:02;;;;;;;2.23;1.90;;;;;;;;;;5027572;28;20033;-64
2023/01/24 08:14:29;;;;;;;3.53;2.10;;;;;;;;;;5026798;28;20033;-65
2023/01/24 08:16:55;;;;;;;7.07;2.27;;;;;;;;;;5027083;28;20045;-65
2023/01/24 08:19:22;;;;;;;1.93;1.53;;;;;;;;;;5026972;28;20472;-65
2023/01/24 08:21:49;;;;;;;4.80;1.90;;;;;;;;;;5030164;28;20361;-64
2023/01/24 08:24:15;;;;;;;1.60;1.40;;;;;;;;;;5032028;28;20044;-65
2023/01/24 08:26:46;;;;;;;1.00;0.90;;;;;;;;;;5032595;28;20033;-64
2023/01/24 08:29:13;;;;;;;3.50;2.27;;;;;;;;;;5032266;28;20064;-64
2023/01/24 08:31:39;;;;;;;5.53;2.67;;;;;;;;;;5032261;28;20091;-65
2023/01/24 08:34:06;;;;;;;4.10;2.87;;;;;;;;;;5027970;28;20499;-64
2023/01/24 08:36:33;;;;;;;3.47;2.60;;;;;;;;;;5026488;28;20026;-65
2023/01/24 08:38:59;;;;;;;4.17;2.67;;;;;;;;;;5026670;28;20091;-64
2023/01/24 08:41:26;;;;;;;4.63;2.53;;;;;;;;;;5026925;28;20049;-65
2023/01/24 08:43:53;;;;;;;2.57;1.97;;;;;;;;;;5029933;28;20411;-64
2023/01/24 08:46:19;;;;;;;8.97;4.17;;;;;;;;;;5031602;28;20030;-64
2023/01/24 08:48:46;;;;;;;3.80;2.73;;;;;;;;;;5032095;28;20028;-65
2023/01/24 08:51:13;;;;;;;3.03;2.17;;;;;;;;;;5032123;28;20022;-64
2023/01/24 08:53:39;;;;;;;5.10;2.67;;;;;;;;;;5031852;28;20044;-64
2023/01/24 08:56:06;;;;;;;2.47;1.97;;;;;;;;;;5028878;28;20053;-64
2023/01/24 08:58:34;;;;;;;2.17;1.67;;;;;;;;;;5026488;28;20030;-65
2023/01/24 09:01:01;;;;;;;4.23;2.83;;;;;;;;;;5026557;28;20104;-64
2023/01/24 09:03:27;;;;;;;2.13;1.73;;;;;;;;;;5026529;28;20136;-64
2023/01/24 09:05:58;;;;;;;4.60;2.50;;;;;;;;;;5028871;28;20032;-64
2023/01/24 09:08:24;;;;;;;3.43;2.43;;;;;;;;;;5032089;28;20362;-64
2023/01/24 09:10:51;;;;;;;2.43;1.80;;;;;;;;;;5031498;28;20255;-64
2023/01/24 09:13:18;;;;;;;3.43;2.67;;;;;;;;;;5031425;28;20032;-65
2023/01/24 09:15:44;;;;;;;4.67;2.13;;;;;;;;;;5031961;28;20654;-65
2023/01/24 09:18:11;;;;;;;2.00;1.60;;;;;;;;;;5029009;28;20354;-64
2023/01/24 09:20:38;;;;;;;1.67;1.47;;;;;;;;;;5026443;28;20104;-64
2023/01/24 09:23:12;;;;;;;3.20;2.50;;;;;;;;;;5026078;28;20270;-64
2023/01/24 09:25:39;;;;;;;4.60;2.72;;;;;;;;;;5027242;28;20259;-64
2023/01/24 09:28:06;;;;;;;3.80;2.40;;;;;;;;;;5032428;28;20033;-64
2023/01/24 09:30:33;;;;;;;8.43;3.77;;;;;;;;;;5035403;28;20282;-64
2023/01/24 09:33:04;;;;;;;3.43;2.37;;;;;;;;;;5035236;28;20262;-64
2023/01/24 09:35:30;;;;;;;3.37;2.27;;;;;;;;;;5035078;28;20271;-64
2023/01/24 09:37:57;;;;;;;3.83;2.97;;;;;;;;;;5034723;28;22138;-65
2023/01/24 09:40:29;;;;;;;5.60;3.23;;;;;;;;;;5032511;28;20296;-64
2023/01/24 09:43:01;;;;;;;7.40;3.47;;;;;;;;;;5029920;28;20263;-64
2023/01/24 09:45:41;;;;;;;2.67;2.00;;;;;;;;;;5029674;28;20334;-64
2023/01/24 09:48:13;;;;;;;2.23;1.93;;;;;;;;;;5029307;28;20360;-64
2023/01/24 09:50:49;;;;;;;2.37;1.97;;;;;;;;;;5032587;28;20254;-64
2023/01/24 09:53:24;;;;;;;2.97;2.50;;;;;;;;;;5034999;28;20255;-64
2023/01/24 09:55:52;;;;;;;2.25;1.85;;;;;;;;;;5034969;28;20745;-64
2023/01/24 09:58:26;;;;;;;4.47;3.47;;;;;;;;;;5034915;28;20025;-64
2023/01/24 10:00:53;;;;;;;5.10;3.20;;;;;;;;;;5034765;28;20267;-64
2023/01/24 10:03:21;;;;;;;5.90;3.33;;;;;;;;;;5030200;28;20502;-64
2023/01/24 10:05:49;;;;;;;5.23;3.53;;;;;;;;;;5029133;28;20271;-64
2023/01/24 10:08:33;;;;;;;4.73;3.53;;;;;;;;;;5029246;28;20314;-64
2023/01/24 10:11:06;;;;;;;3.67;2.53;;;;;;;;;;5029322;28;20278;-64
2023/01/24 10:13:43;;;;;;;4.40;2.47;;;;;;;;;;5033091;28;20262;-65
2023/01/24 10:16:12;;;;;;;5.93;3.43;;;;;;;;;;5034274;28;20263;-64
2023/01/24 10:18:39;;;;;;;21.27;3.03;;;;;;;;;;5034589;28;20342;-64
2023/01/24 10:21:12;;;;;;;4.90;3.97;;;;;;;;;;5034264;28;20745;-64
2023/01/24 10:23:41;;;;;;;3.57;2.77;;;;;;;;;;5034296;28;20605;-64
2023/01/24 10:26:23;;;;;;;8.23;3.40;;;;;;;;;;5028476;28;20741;-64
2023/01/24 10:28:51;;;;;;;5.00;3.40;;;;;;;;;;5028920;28;20749;-64
2023/01/24 10:31:29;;;;;;;3.33;2.63;;;;;;;;;;5028735;28;20263;-64
2023/01/24 10:34:01;;;;;;;2.57;1.87;;;;;;;;;;5028827;28;20266;-64
2023/01/24 10:36:46;;;;;;;2.47;2.10;;;;;;;;;;5033297;28;20266;-64
2023/01/24 10:39:13;;;;;;;3.70;2.63;;;;;;;;;;5034272;28;20270;-64
2023/01/24 10:41:39;;;;;;;3.47;2.63;;;;;;;;;;5034129;28;20029;-64
2023/01/24 10:44:12;;;;;;;8.70;3.87;;;;;;;;;;5033754;28;20274;-64
2023/01/24 10:47:00;;;;;;;8.73;3.50;;;;;;;;;;5031885;28;20309;-64
2023/01/24 10:49:29;;;;;;;3.37;2.40;;;;;;;;;;5028542;28;20750;-64
2023/01/24 10:52:25;;;;;;;2.63;2.20;;;;;;;;;;5028482;28;20286;-64
2023/01/24 10:54:53;;;;;;;3.40;2.28;;;;;;;;;;5015510;28;21066;-64
2023/01/24 10:57:34;;;;;;;3.83;2.40;;;;;;;;;;5031025;28;20017;-64
2023/01/24 11:00:17;;;;;;;3.20;2.50;;;;;;;;;;5033759;28;20251;-64
2023/01/24 11:02:49;;;;;;;4.37;2.80;;;;;;;;;;5033532;28;20262;-64
2023/01/24 11:05:15;;;;;;;5.50;3.07;;;;;;;;;;5033683;28;20373;-64
2023/01/24 11:07:53;;;;;;;3.43;1.33;;;;;;;;;;5033432;28;20290;-64
2023/01/24 11:10:24;;;;;;;1.67;1.50;;;;;;;;;;5029124;28;20265;-65
2023/01/24 11:12:52;;;;;;;4.77;3.33;;;;;;;;;;5027663;28;20282;-64
2023/01/24 11:15:24;;;;;;;3.10;2.07;;;;;;;;;;5028119;28;20792;-64
2023/01/24 11:17:56;;;;;;;5.07;2.43;;;;;;;;;;5027898;28;20749;-64
2023/01/24 11:20:22;;;;;;;3.40;2.63;;;;;;;;;;5032316;28;20266;-64
2023/01/24 11:22:52;;;;;;;3.23;2.67;;;;;;;;;;5033378;28;20258;-64
2023/01/24 11:25:19;;;;;;;7.20;3.60;;;;;;;;;;5032899;28;20294;-64
2023/01/24 11:27:48;;;;;;;4.77;2.67;;;;;;;;;;5033168;28;20282;-64
2023/01/24 11:30:17;;;;;;;3.97;2.90;;;;;;;;;;5032889;28;20326;-64
2023/01/24 11:32:59;;;;;;;2.67;2.10;;;;;;;;;;5027950;28;20271;-64
2023/01/24 11:35:30;;;;;;;13.10;2.03;;;;;;;;;;5027753;28;20267;-64
2023/01/24 11:38:03;;;;;;;3.23;2.57;;;;;;;;;;5027577;28;20338;-64
2023/01/24 11:40:36;;;;;;;4.43;2.70;;;;;;;;;;5026982;28;20752;-64
2023/01/24 11:43:12;;;;;;;4.10;2.67;;;;;;;;;;5032897;28;20325;-65
2023/01/24 11:45:56;;;;;;;6.57;3.23;;;;;;;;;;5032974;28;20255;-64
2023/01/24 11:48:26;;;;;;;2.70;1.67;;;;;;;;;;5032448;28;20641;-64
2023/01/24 11:51:15;;;;;;;3.93;3.07;;;;;;;;;;5032906;28;20021;-64
2023/01/24 11:54:00;;;;;;;3.73;2.77;;;;;;;;;;5030159;28;20643;-63
2023/01/24 11:56:37;;;;;;;17.98;3.53;;;;;;;;;;5027388;28;20262;-64
2023/01/24 11:59:23;;;;;;;2.60;2.17;;;;;;;;;;5027163;28;20033;-64
2023/01/24 12:01:49;;;;;;;;;;;;;;;;;;5027320;28;20267;-64
2023/01/24 12:04:28;;;;;;;3.47;2.43;;;;;;;;;;5030105;28;19913;-64
2023/01/24 12:06:58;;;;;;;3.67;2.43;;;;;;;;;;5032540;28;20290;-64
2023/01/24 12:09:25;;;;;;;2.63;2.00;;;;;;;;;;5032489;28;20737;-64
2023/01/24 12:11:52;;;;;;;4.80;2.80;;;;;;;;;;5032208;28;20265;-64
2023/01/24 12:14:22;;;;;;;2.43;2.10;;;;;;;;;;5032115;28;20609;-64
2023/01/24 12:16:48;;;;;;;8.70;4.77;;;;;;;;;;5028644;28;20262;-64
2023/01/24 12:19:33;;;;;;;7.13;4.00;;;;;;;;;;5027114;28;20255;-66
2023/01/24 12:22:00;;;;;;;5.93;2.53;;;;;;;;;;5027280;28;20255;-64
2023/01/24 12:24:38;;;;;;;2.13;1.80;;;;;;;;;;5026473;28;20018;-64
2023/01/24 12:27:12;;;;;;;3.60;2.50;;;;;;;;;;5031086;28;20784;-64
2023/01/24 12:29:57;;;;;;;4.63;3.37;;;;;;;;;;5032110;28;20662;-64
2023/01/24 12:32:39;;;;;;;11.43;3.33;;;;;;;;;;5032161;28;20347;-64
2023/01/24 12:35:20;;;;;;;4.23;3.53;;;;;;;;;;5032186;28;20372;-64
2023/01/24 12:37:59;;;;;;;3.97;3.07;;;;;;;;;;5011604;28;20270;-64
2023/01/24 12:40:58;;;;;;;4.93;3.10;;;;;;;;;;5006590;28;20271;-64
2023/01/24 12:43:36;;;;;;;3.97;2.60;;;;;;;;;;4984338;28;20725;-64
2023/01/24 12:46:20;;;;;;;3.03;2.43;;;;;;;;;;5006827;28;20310;-64
2023/01/24 12:49:01;;;;;;;3.33;2.45;;;;;;;;;;5021203;28;20345;-64
2023/01/24 12:51:30;;;;;;;3.93;2.43;;;;;;;;;;5031900;28;20033;-64
2023/01/24 12:54:03;;;;;;;4.13;2.70;;;;;;;;;;5031978;28;20302;-64
2023/01/24 12:56:50;;;;;;;4.53;3.20;;;;;;;;;;5032309;28;20312;-64
2023/01/24 12:59:20;;;;;;;3.23;2.57;;;;;;;;;;5024254;28;20267;-64
2023/01/24 13:01:46;;;;;;;8.00;4.60;;;;;;;;;;5029733;28;20674;-64
2023/01/24 13:04:20;;;;;;;8.33;4.83;;;;;;;;;;5030130;28;20600;-63
2023/01/24 13:06:49;;;;;;;5.30;3.80;;;;;;;;;;5029670;28;20394;-64
2023/01/24 13:09:22;;;;;;;2.30;1.60;;;;;;;;;;5030622;28;20282;-64
2023/01/24 13:11:50;;;;;;;3.10;2.43;;;;;;;;;;5035210;28;20259;-63
2023/01/24 13:14:20;;;;;;;5.63;3.17;;;;;;;;;;5035793;28;20262;-63
2023/01/24 13:16:58;;;;;;;3.20;2.40;;;;;;;;;;5035062;28;20806;-64
2023/01/24 13:19:43;;;;;;;4.20;2.63;;;;;;;;;;5035532;28;20282;-64
2023/01/24 13:22:31;;;;;;;6.93;4.22;;;;;;;;;;5034766;28;20259;-64
2023/01/24 13:24:58;;;;;;;7.50;4.40;;;;;;;;;;5030239;28;20500;-63
2023/01/24 13:27:43;;;;;;;6.77;4.70;;;;;;;;;;5030032;28;20793;-64
2023/01/24 13:30:28;;;;;;;7.45;4.03;;;;;;;;;;5029635;28;20274;-63
2023/01/24 13:32:55;;;;;;;4.05;3.35;;;;;;;;;;5032360;28;20048;-63
2023/01/24 13:35:23;;;;;;;5.47;3.57;;;;;;;;;;5035399;28;20025;-63
2023/01/24 13:37:54;;;;;;;4.80;3.70;;;;;;;;;;5035213;28;20255;-63
2023/01/24 13:40:26;;;;;;;8.53;3.40;;;;;;;;;;5034197;28;20286;-64
2023/01/24 13:42:53;;;;;;;14.03;4.87;;;;;;;;;;5034382;28;20354;-63
2023/01/24 13:45:26;;;;;;;8.60;3.97;;;;;;;;;;5032550;28;20825;-63
2023/01/24 13:47:54;;;;;;;3.70;2.50;;;;;;;;;;5029420;28;20353;-65
2023/01/24 13:50:21;;;;;;;4.40;3.33;;;;;;;;;;5029507;28;20346;-64
2023/01/24 13:52:50;;;;;;;8.03;5.07;;;;;;;;;;5029225;28;20258;-63
2023/01/24 13:55:21;;;;;;;9.43;4.63;;;;;;;;;;5031919;28;20305;-64
2023/01/24 13:57:49;;;;;;;7.30;4.90;;;;;;;;;;5034693;28;20262;-63
2023/01/24 14:00:20;;;;;;;12.90;7.33;;;;;;;;;;5034948;28;20359;-64
2023/01/24 14:02:53;;;;;;;6.40;4.33;;;;;;;;;;5033871;28;20286;-64
2023/01/24 14:05:29;;;;;;;11.83;5.43;;;;;;;;;;5034479;28;20309;-64
2023/01/24 14:08:00;;;;;;;13.97;6.03;;;;;;;;;;5028545;28;20291;-64
2023/01/24 14:10:34;;;;;;;11.30;5.70;;;;;;;;;;5029040;28;20286;-64
2023/01/24 14:13:00;;;;;;;4.60;3.97;;;;;;;;;;5028710;28;20370;-64
2023/01/24 14:15:31;;;;;;;10.53;4.97;;;;;;;;;;5029109;28;20255;-65
2023/01/24 14:17:58;;;;;;;15.50;6.23;;;;;;;;;;5032574;28;20360;-65
2023/01/24 14:20:31;;;;;;;27.80;5.47;;;;;;;;;;5033579;28;20346;-64
2023/01/24 14:22:59;;;;;;;8.87;4.47;;;;;;;;;;5034433;28;20104;-64
2023/01/24 14:25:26;;;;;;;11.73;4.50;;;;;;;;;;5034544;28;20033;-64
2023/01/24 14:27:55;;;;;;;4.47;3.40;;;;;;;;;;5034300;28;20515;-64
2023/01/24 14:30:31;;;;;;;7.43;4.30;;;;;;;;;;5029800;28;20029;-65
2023/01/24 14:33:01;;;;;;;44.40;5.83;;;;;;;;;;5028226;28;20029;-65
2023/01/24 14:35:36;;;;;;;7.40;5.57;;;;;;;;;;5028453;28;20059;-66
2023/01/24 14:38:15;;;;;;;22.17;4.40;;;;;;;;;;5028753;28;20025;-64
2023/01/24 14:40:42;;;;;;;4.87;3.80;;;;;;;;;;5033421;28;20148;-65
2023/01/24 14:43:11;;;;;;;4.77;3.43;;;;;;;;;;5033814;28;20446;-64
2023/01/24 14:45:38;;;;;;;4.87;2.40;;;;;;;;;;5033630;28;20075;-65
2023/01/24 14:48:09;;;;;;;7.10;3.57;;;;;;;;;;5034073;28;20080;-64
2023/01/24 14:50:37;;;;;;;5.47;2.83;;;;;;;;;;5033602;28;20033;-64
2023/01/24 14:53:22;;;;;;;4.47;3.10;;;;;;;;;;5028616;28;20022;-65
2023/01/24 14:55:50;;;;;;;7.13;5.00;;;;;;;;;;5028614;28;20103;-65
2023/01/24 14:58:20;;;;;;;11.03;6.70;;;;;;;;;;5028437;28;20348;-66
2023/01/24 15:00:47;;;;;;;11.97;6.53;;;;;;;;;;5028156;28;20060;-65
2023/01/24 15:03:19;;;;;;;13.27;8.27;;;;;;;;;;5033772;28;20380;-65
2023/01/24 15:05:51;;;;;;;11.77;8.13;;;;;;;;;;5033397;28;20079;-65
2023/01/24 15:08:18;;;;;;;23.00;7.77;;;;;;;;;;5033837;28;20152;-65
2023/01/24 15:10:44;;;;;;;42.60;7.20;;;;;;;;;;5033764;28;20396;-65
2023/01/24 15:13:24;;;;;;;14.93;6.63;;;;;;;;;;5032747;28;20029;-65
2023/01/24 15:15:51;;;;;;;8.97;5.73;;;;;;;;;;5027742;28;20033;-65
2023/01/24 15:18:31;;;;;;;6.33;4.20;;;;;;;;;;5027830;28;20032;-65
2023/01/24 15:20:58;;;;;;;7.20;4.50;;;;;;;;;;5028052;28;20021;-65
2023/01/24 15:23:28;;;;;;;3.97;3.20;;;;;;;;;;5028136;28;20033;-65
2023/01/24 15:25:55;;;;;;;5.40;3.97;;;;;;;;;;5033407;28;20384;-65
2023/01/24 15:28:28;;;;;;;8.50;3.53;;;;;;;;;;5032872;28;20044;-65
2023/01/24 15:30:55;;;;;;;9.63;4.27;;;;;;;;;;5032854;28;20523;-65
2023/01/24 15:33:22;;;;;;;9.63;4.87;;;;;;;;;;5032962;28;20033;-65
2023/01/24 15:35:49;;;;;;;4.17;3.40;;;;;;;;;;5031375;28;20013;-67